createdAt,value
2024-05-09T00:00:59.950Z,6.40
2024-05-09T00:03:29.887Z,5.93
2024-05-09T00:05:59.711Z,6.23
2024-05-09T00:08:29.657Z,6.40
2024-05-09T00:11:03.884Z,6.17
2024-05-09T00:13:33.958Z,6.00
2024-05-09T00:16:03.627Z,6.43
2024-05-09T00:18:33.515Z,6.03
2024-05-09T00:21:03.438Z,6.10
2024-05-09T00:23:33.402Z,5.93
2024-05-09T00:26:05.902Z,5.87
2024-05-09T00:28:35.657Z,6.20
2024-05-09T00:31:05.841Z,6.70
2024-05-09T00:33:35.786Z,6.70
2024-05-09T00:36:05.626Z,6.40
2024-05-09T00:38:35.621Z,5.90
2024-05-09T00:41:08.095Z,6.57
2024-05-09T00:43:37.757Z,6.17
2024-05-09T00:46:08.060Z,6.57
2024-05-09T00:48:38.335Z,6.20
2024-05-09T00:51:09.203Z,6.30
2024-05-09T00:53:39.187Z,6.47
2024-05-09T00:56:14.256Z,6.43
2024-05-09T00:58:44.662Z,6.57
2024-05-09T01:01:14.436Z,6.00
2024-05-09T01:03:45.944Z,6.40
2024-05-09T01:06:16.345Z,6.70
2024-05-09T01:08:46.236Z,6.23
2024-05-09T01:11:20.427Z,6.30
2024-05-09T01:13:50.175Z,6.77
2024-05-09T01:16:19.958Z,6.67
2024-05-09T01:18:49.732Z,5.70
2024-05-09T01:21:19.490Z,6.40
2024-05-09T01:23:51.904Z,6.47
2024-05-09T01:26:21.636Z,6.30
2024-05-09T01:28:51.476Z,6.33
2024-05-09T01:31:21.375Z,6.67
2024-05-09T01:33:51.259Z,6.37
2024-05-09T01:36:21.683Z,6.80
2024-05-09T01:38:54.058Z,6.70
2024-05-09T01:41:23.953Z,6.50
2024-05-09T01:43:53.886Z,6.40
2024-05-09T01:46:23.609Z,6.53
2024-05-09T01:48:53.364Z,6.30
2024-05-09T01:51:23.096Z,6.97
2024-05-09T01:53:57.519Z,7.00
2024-05-09T01:56:27.268Z,7.03
2024-05-09T01:58:57.043Z,6.60
2024-05-09T02:01:26.907Z,6.80
2024-05-09T02:03:56.860Z,6.70
2024-05-09T02:06:26.632Z,7.00
2024-05-09T02:08:59.141Z,6.57
2024-05-09T02:11:28.729Z,6.27
2024-05-09T02:13:58.578Z,6.23
2024-05-09T02:16:28.311Z,6.90
2024-05-09T02:18:58.125Z,7.90
2024-05-09T02:21:27.829Z,9.57
2024-05-09T02:24:00.256Z,8.50
2024-05-09T02:26:30.022Z,8.40
2024-05-09T02:28:59.761Z,7.27
2024-05-09T02:31:29.494Z,7.13
2024-05-09T02:33:56.898Z,7.50
2024-05-09T02:36:26.787Z,7.73
2024-05-09T02:38:56.442Z,7.03
2024-05-09T02:41:27.161Z,6.97
2024-05-09T02:43:54.330Z,7.07
2024-05-09T02:46:24.057Z,7.10
2024-05-09T02:48:51.272Z,7.37
2024-05-09T02:51:21.273Z,7.67
2024-05-09T02:53:48.306Z,7.17
2024-05-09T02:56:20.662Z,6.67
2024-05-09T02:58:47.777Z,6.83
2024-05-09T03:01:19.958Z,6.70
2024-05-09T03:03:48.523Z,5.90
2024-05-09T03:06:18.264Z,5.40
2024-05-09T03:08:45.883Z,5.37
2024-05-09T03:11:26.618Z,4.77
2024-05-09T03:13:55.416Z,5.90
2024-05-09T03:16:25.127Z,5.47
2024-05-09T03:18:52.647Z,5.07
2024-05-09T03:21:24.483Z,5.60
2024-05-09T03:23:51.555Z,5.07
2024-05-09T03:26:21.413Z,4.97
2024-05-09T03:28:51.142Z,4.33
2024-05-09T03:31:21.392Z,4.93
2024-05-09T03:33:48.733Z,4.60
2024-05-09T03:36:18.546Z,4.37
2024-05-09T03:38:50.412Z,4.90
2024-05-09T03:41:22.047Z,4.83
2024-05-09T03:43:54.482Z,4.57
2024-05-09T03:46:24.191Z,4.80
2024-05-09T03:48:51.268Z,4.77
2024-05-09T03:51:21.105Z,4.47
2024-05-09T03:53:48.249Z,4.53
2024-05-09T03:56:17.891Z,4.70
2024-05-09T03:58:45.010Z,4.10
2024-05-09T04:01:18.531Z,4.33
2024-05-09T04:03:45.783Z,4.73
2024-05-09T04:06:23.125Z,4.83
2024-05-09T04:08:50.267Z,4.37
2024-05-09T04:11:20.142Z,4.90
2024-05-09T04:13:47.323Z,5.30
2024-05-09T04:16:19.694Z,5.20
2024-05-09T04:18:46.863Z,4.63
2024-05-09T04:21:16.831Z,5.07
2024-05-09T04:23:43.948Z,4.57
2024-05-09T04:26:14.116Z,4.43
2024-05-09T04:28:41.245Z,4.73
2024-05-09T04:31:10.932Z,3.90
2024-05-09T04:33:40.677Z,3.90
2024-05-09T04:36:10.671Z,4.43
2024-05-09T04:38:37.968Z,4.23
2024-05-09T04:41:08.112Z,4.37
2024-05-09T04:43:35.504Z,5.07
2024-05-09T04:46:06.407Z,4.47
2024-05-09T04:48:35.969Z,4.40
2024-05-09T04:51:10.112Z,4.17
2024-05-09T04:53:37.375Z,4.13
2024-05-09T04:56:07.728Z,4.80
2024-05-09T04:58:34.931Z,4.27
2024-05-09T05:01:04.668Z,4.00
2024-05-09T05:03:31.978Z,3.97
2024-05-09T05:06:02.566Z,4.13
2024-05-09T05:08:32.716Z,4.80
2024-05-09T05:11:02.612Z,4.53
2024-05-09T05:13:31.547Z,5.00
2024-05-09T05:16:01.597Z,6.00
2024-05-09T05:18:29.351Z,5.20
2024-05-09T05:21:00.035Z,5.83
2024-05-09T05:23:27.171Z,5.67
2024-05-09T05:25:59.716Z,7.50
2024-05-09T05:28:26.875Z,6.13
2024-05-09T05:30:56.499Z,6.10
2024-05-09T05:33:24.140Z,5.33
2024-05-09T05:35:54.043Z,6.73
2024-05-09T05:38:24.861Z,6.20
2024-05-09T05:40:59.732Z,6.87
2024-05-09T05:43:27.195Z,7.20
2024-05-09T05:45:56.806Z,7.47
2024-05-09T05:48:24.070Z,7.33
2024-05-09T05:50:54.050Z,8.63
2024-05-09T05:53:21.260Z,8.10
2024-05-09T05:55:53.714Z,8.20
2024-05-09T05:58:23.506Z,7.47
2024-05-09T06:00:55.098Z,8.13
2024-05-09T06:03:22.354Z,8.53
2024-05-09T06:05:52.307Z,8.50
2024-05-09T06:08:19.587Z,9.37
2024-05-09T06:10:49.500Z,9.77
2024-05-09T06:13:16.663Z,9.13
2024-05-09T06:15:49.582Z,8.30
2024-05-09T06:18:17.239Z,8.60
2024-05-09T06:20:47.122Z,9.17
2024-05-09T06:23:14.661Z,9.63
2024-05-09T06:25:45.068Z,9.43
2024-05-09T06:28:12.161Z,10.13
2024-05-09T06:30:43.200Z,11.20
2024-05-09T06:33:15.333Z,8.80
2024-05-09T06:35:52.063Z,9.53
2024-05-09T06:38:19.374Z,11.90
2024-05-09T06:40:49.457Z,13.07
2024-05-09T06:43:19.196Z,13.20
2024-05-09T06:45:49.930Z,13.30
2024-05-09T06:48:30.866Z,14.07
2024-05-09T06:51:01.027Z,13.20
2024-05-09T06:53:28.416Z,12.90
2024-05-09T06:55:58.218Z,12.43
2024-05-09T06:58:25.256Z,13.80
2024-05-09T07:00:57.978Z,14.00
2024-05-09T07:03:28.016Z,15.57
2024-05-09T07:05:57.860Z,14.03
2024-05-09T07:08:25.122Z,14.60
2024-05-09T07:10:55.079Z,15.27
2024-05-09T07:13:22.253Z,14.87
2024-05-09T07:15:52.063Z,13.70
2024-05-09T07:18:20.400Z,14.53
2024-05-09T07:20:53.355Z,14.13
2024-05-09T07:23:20.809Z,14.07
2024-05-09T07:25:50.635Z,13.60
2024-05-09T07:28:19.417Z,13.77
2024-05-09T07:30:51.038Z,13.23
2024-05-09T07:33:21.529Z,13.20
2024-05-09T07:35:55.421Z,12.93
2024-05-09T07:38:22.814Z,13.03
2024-05-09T07:40:52.815Z,13.47
2024-05-09T07:43:20.009Z,12.43
2024-05-09T07:45:53.949Z,12.90
2024-05-09T07:53:00.871Z,12.63
2024-05-09T07:53:50.782Z,12.20
2024-05-09T07:56:24.350Z,12.90
2024-05-09T07:58:52.987Z,13.23
2024-05-09T08:01:24.705Z,12.90
2024-05-09T08:03:52.071Z,11.70
2024-05-09T08:06:24.521Z,11.33
2024-05-09T08:08:51.837Z,12.80
2024-05-09T08:11:22.066Z,12.00
2024-05-09T08:13:49.128Z,12.73
2024-05-09T08:16:19.270Z,11.73
2024-05-09T08:18:46.543Z,12.70
2024-05-09T08:21:16.440Z,11.63
2024-05-09T08:23:46.182Z,12.17
2024-05-09T08:26:15.908Z,12.93
2024-05-09T08:28:45.662Z,12.27
2024-05-09T08:31:15.818Z,12.40
2024-05-09T08:33:51.285Z,12.50
2024-05-09T08:36:18.435Z,13.47
2024-05-09T08:38:50.854Z,14.30
2024-05-09T08:41:18.096Z,13.00
2024-05-09T08:43:47.820Z,12.00
2024-05-09T08:46:15.670Z,12.53
2024-05-09T08:48:48.031Z,12.13
2024-05-09T08:51:15.473Z,12.67
2024-05-09T08:53:45.234Z,12.30
2024-05-09T08:56:16.647Z,12.40
2024-05-09T08:58:48.290Z,11.80
2024-05-09T09:01:17.952Z,11.13
2024-05-09T09:03:48.690Z,11.47
2024-05-09T09:06:19.913Z,12.30
2024-05-09T09:08:51.626Z,12.13
2024-05-09T09:11:21.380Z,12.40
2024-05-09T09:13:51.552Z,11.37
2024-05-09T09:16:18.985Z,11.13
2024-05-09T09:18:50.042Z,11.13
2024-05-09T09:21:18.100Z,11.73
2024-05-09T09:23:48.108Z,10.90
2024-05-09T09:26:16.922Z,11.17
2024-05-09T09:28:50.113Z,11.83
2024-05-09T09:31:18.851Z,13.87
2024-05-09T09:33:49.029Z,12.30
2024-05-09T09:36:18.536Z,11.67
2024-05-09T09:38:52.598Z,11.90
2024-05-09T09:41:24.766Z,11.13
2024-05-09T09:43:59.848Z,11.07
2024-05-09T09:46:29.274Z,11.40
2024-05-09T09:48:59.487Z,11.77
2024-05-09T09:51:27.034Z,11.50
2024-05-09T09:53:58.679Z,11.30
2024-05-09T09:56:30.474Z,11.87
2024-05-09T09:59:05.758Z,11.90
2024-05-09T10:01:34.752Z,11.97
2024-05-09T10:04:06.090Z,12.07
2024-05-09T10:06:36.079Z,11.83
2024-05-09T10:09:06.338Z,11.57
2024-05-09T10:11:39.798Z,11.40
2024-05-09T10:14:23.487Z,10.50
2024-05-09T10:16:50.636Z,10.37
2024-05-09T10:19:28.240Z,9.47
2024-05-09T10:22:03.198Z,9.73
2024-05-09T10:24:49.337Z,8.77
2024-05-09T10:27:16.882Z,8.95
2024-05-09T10:29:59.114Z,11.63
2024-05-09T10:32:28.749Z,11.80
2024-05-09T10:35:09.475Z,11.35
2024-05-09T10:37:36.554Z,11.82
2024-05-09T10:40:14.093Z,12.38
2024-05-09T10:42:47.017Z,12.73
2024-05-09T10:45:21.486Z,12.57
2024-05-09T10:47:48.758Z,12.27
2024-05-09T10:50:25.515Z,11.90
2024-05-09T10:52:56.018Z,12.63
2024-05-09T10:55:25.796Z,12.02
2024-05-09T10:57:53.160Z,10.75
2024-05-09T11:00:30.694Z,11.77
2024-05-09T11:03:03.307Z,11.82
2024-05-09T11:05:34.106Z,12.23
2024-05-09T11:08:01.397Z,12.50
2024-05-09T11:10:34.097Z,13.07
2024-05-09T11:13:02.069Z,12.13
2024-05-09T11:15:43.436Z,12.68
2024-05-09T11:18:25.950Z,11.43
2024-05-09T11:20:58.192Z,12.35
2024-05-09T11:23:27.511Z,13.02
2024-05-09T11:25:58.226Z,12.55
2024-05-09T11:28:29.156Z,12.70
2024-05-09T11:31:11.272Z,12.23
2024-05-09T11:33:39.764Z,12.75
2024-05-09T11:36:12.922Z,11.98
2024-05-09T11:38:40.547Z,12.35
2024-05-09T11:41:13.323Z,12.27
2024-05-09T11:43:40.339Z,13.35
2024-05-09T11:46:12.988Z,12.15
2024-05-09T11:48:40.711Z,13.18
2024-05-09T11:51:10.888Z,12.98
2024-05-09T11:53:38.185Z,13.50
2024-05-09T11:56:08.545Z,13.18
2024-05-09T11:58:37.086Z,14.02
2024-05-09T12:01:07.119Z,13.27
2024-05-09T12:03:38.129Z,13.30
2024-05-09T12:06:08.458Z,13.27
2024-05-09T12:08:35.644Z,14.00
2024-05-09T12:11:05.470Z,13.68
2024-05-09T12:13:32.757Z,13.68
2024-05-09T12:16:02.654Z,14.35
2024-05-09T12:18:30.150Z,14.48
2024-05-09T12:21:02.749Z,14.48
2024-05-09T12:23:29.883Z,15.77
2024-05-09T12:25:59.636Z,15.05
2024-05-09T12:28:26.987Z,16.23
2024-05-09T12:30:56.781Z,15.10
2024-05-09T12:33:24.072Z,15.35
2024-05-09T12:35:53.987Z,16.35
2024-05-09T12:38:23.731Z,14.43
2024-05-09T12:40:53.656Z,15.27
2024-05-09T12:43:20.889Z,16.15
2024-05-09T12:45:50.745Z,14.82
2024-05-09T12:48:18.110Z,15.07
2024-05-09T12:50:48.310Z,15.27
2024-05-09T12:53:15.349Z,15.30
2024-05-09T12:55:53.861Z,14.77
2024-05-09T12:58:24.790Z,14.30
2024-05-09T13:00:55.100Z,14.65
2024-05-09T13:03:22.445Z,14.85
2024-05-09T13:05:52.636Z,14.45
2024-05-09T13:08:20.466Z,14.23
2024-05-09T13:10:53.115Z,14.98
2024-05-09T13:13:20.499Z,14.18
2024-05-09T13:15:50.343Z,14.88
2024-05-09T13:18:17.513Z,15.20
2024-05-09T13:20:47.487Z,15.57
2024-05-09T13:23:14.595Z,14.60
2024-05-09T13:25:44.235Z,15.02
2024-05-09T13:28:14.164Z,14.13
2024-05-09T13:30:44.283Z,14.43
2024-05-09T13:33:14.311Z,12.90
2024-05-09T13:35:49.111Z,13.43
2024-05-09T13:38:19.082Z,13.23
2024-05-09T13:40:50.235Z,13.52
2024-05-09T13:43:22.199Z,13.00
2024-05-09T13:45:52.356Z,12.70
2024-05-09T13:48:19.904Z,12.13
2024-05-09T13:50:49.951Z,12.43
2024-05-09T13:53:19.721Z,12.90
2024-05-09T13:55:49.969Z,11.73
2024-05-09T13:58:23.635Z,12.27
2024-05-09T14:00:51.002Z,12.43
2024-05-09T14:03:21.537Z,12.55
2024-05-09T14:05:50.904Z,11.40
2024-05-09T14:08:22.660Z,12.65
2024-05-09T14:10:50.753Z,10.80
2024-05-09T14:13:23.439Z,10.25
2024-05-09T14:15:50.802Z,10.38
2024-05-09T14:18:21.128Z,11.90
2024-05-09T14:20:48.459Z,11.32
2024-05-09T14:23:25.636Z,12.30
2024-05-09T14:25:53.515Z,11.75
2024-05-09T14:28:27.201Z,11.70
2024-05-09T14:30:56.708Z,12.10
2024-05-09T14:33:27.158Z,11.88
2024-05-09T14:36:12.242Z,11.25
2024-05-09T14:38:42.123Z,11.25
2024-05-09T14:41:11.992Z,12.02
2024-05-09T14:43:44.338Z,8.90
2024-05-09T14:46:11.490Z,9.93
2024-05-09T14:48:41.532Z,10.55
2024-05-09T14:51:08.640Z,9.50
2024-05-09T14:53:38.284Z,11.05
2024-05-09T14:56:06.259Z,10.52
2024-05-09T14:58:36.063Z,10.35
2024-05-09T15:01:06.492Z,9.20
2024-05-09T15:03:36.470Z,8.20
2024-05-09T15:06:04.861Z,7.88
2024-05-09T15:08:34.767Z,8.10
2024-05-09T15:11:02.197Z,7.00
2024-05-09T15:13:32.089Z,7.40
2024-05-09T15:15:59.482Z,7.38
2024-05-09T15:18:32.599Z,6.75
2024-05-09T15:21:00.046Z,6.82
2024-05-09T15:23:29.881Z,9.27
2024-05-09T15:25:57.054Z,9.00
2024-05-09T15:28:26.861Z,9.68
2024-05-09T15:30:54.036Z,9.35
2024-05-09T15:33:23.937Z,9.90
2024-05-09T15:35:54.114Z,10.65
2024-05-09T15:38:23.952Z,10.15
2024-05-09T15:40:51.317Z,10.77
2024-05-09T15:43:21.504Z,11.25
2024-05-09T15:45:48.716Z,11.63
2024-05-09T15:48:18.738Z,10.40
2024-05-09T15:50:46.063Z,10.23
2024-05-09T15:53:20.045Z,10.30
2024-05-09T15:55:49.217Z,9.20
2024-05-09T15:58:19.105Z,10.27
2024-05-09T16:00:48.728Z,12.30
2024-05-09T16:03:21.316Z,10.18
2024-05-09T16:05:49.097Z,9.05
2024-05-09T16:08:24.515Z,10.30
2024-05-09T16:10:51.801Z,10.30
2024-05-09T16:13:22.978Z,9.50
2024-05-09T16:15:53.274Z,9.65
2024-05-09T16:18:20.706Z,9.05
2024-05-09T16:20:50.980Z,8.60
2024-05-09T16:23:21.124Z,9.70
2024-05-09T16:25:52.595Z,9.10
2024-05-09T16:28:22.913Z,9.32
2024-05-09T16:30:54.402Z,9.07
2024-05-09T16:33:23.962Z,8.75
2024-05-09T16:35:54.041Z,8.30
2024-05-09T16:38:23.819Z,9.55
2024-05-09T16:40:53.724Z,8.57
2024-05-09T16:43:21.165Z,8.90
2024-05-09T16:45:51.082Z,8.63
2024-05-09T16:48:18.503Z,7.88
2024-05-09T16:50:48.333Z,7.30
2024-05-09T16:53:15.545Z,8.05
2024-05-09T16:55:47.882Z,9.48
2024-05-09T16:58:15.280Z,8.60
2024-05-09T17:00:45.158Z,7.97
2024-05-09T17:03:14.821Z,7.75
2024-05-09T17:05:47.138Z,7.82
2024-05-09T17:08:15.781Z,8.65
2024-05-09T17:10:49.806Z,7.47
2024-05-09T17:13:20.442Z,7.28
2024-05-09T17:15:51.022Z,6.88
2024-05-09T17:18:23.477Z,7.18
2024-05-09T17:20:54.716Z,7.35
2024-05-09T17:23:22.164Z,7.00
2024-05-09T17:25:54.591Z,6.90
2024-05-09T17:28:21.766Z,7.50
2024-05-09T17:30:51.535Z,7.43
2024-05-09T17:33:18.943Z,7.80
2024-05-09T17:35:50.798Z,7.57
2024-05-09T17:38:18.554Z,6.82
2024-05-09T17:40:48.704Z,6.93
2024-05-09T17:43:18.565Z,7.63
2024-05-09T17:45:48.561Z,7.28
2024-05-09T17:48:17.283Z,7.43
2024-05-09T17:50:47.297Z,7.20
2024-05-09T17:53:14.326Z,7.60
2024-05-09T17:55:44.113Z,7.90
2024-05-09T17:58:13.001Z,7.53
2024-05-09T18:00:45.540Z,7.20
2024-05-09T18:03:13.665Z,8.02
2024-05-09T18:05:45.197Z,7.38
2024-05-09T18:08:12.980Z,7.50
2024-05-09T18:10:43.331Z,7.70
2024-05-09T18:13:11.612Z,7.57
2024-05-09T18:15:42.104Z,7.43
2024-05-09T18:18:12.931Z,7.43
2024-05-09T18:20:45.594Z,7.13
2024-05-09T18:23:15.163Z,7.65
2024-05-09T18:25:46.867Z,7.20
2024-05-09T18:28:14.833Z,7.05
2024-05-09T18:30:45.215Z,7.32
2024-05-09T18:33:15.688Z,6.53
2024-05-09T18:35:46.258Z,6.57
2024-05-09T18:38:13.783Z,7.05
2024-05-09T18:40:45.940Z,7.03
2024-05-09T18:43:15.284Z,8.68
2024-05-09T18:45:49.130Z,8.02
2024-05-09T18:48:19.226Z,8.00
2024-05-09T18:50:58.578Z,8.13
2024-05-09T18:53:25.729Z,7.45
2024-05-09T18:55:55.757Z,7.75
2024-05-09T18:58:22.866Z,7.13
2024-05-09T19:00:54.997Z,7.50
2024-05-09T19:03:25.959Z,7.80
2024-05-09T19:05:56.240Z,8.07
2024-05-09T19:08:23.417Z,7.45
2024-05-09T19:10:53.359Z,7.65
2024-05-09T19:13:20.805Z,7.60
2024-05-09T19:15:51.375Z,7.47
2024-05-09T19:18:18.728Z,7.35
2024-05-09T19:20:51.357Z,8.80
2024-05-09T19:23:18.487Z,9.18
2024-05-09T19:25:48.380Z,9.52
2024-05-09T19:28:15.449Z,9.38
2024-05-09T19:30:45.416Z,9.27
2024-05-09T19:33:13.733Z,9.30
2024-05-09T19:35:44.396Z,8.23
2024-05-09T19:38:14.361Z,8.93
2024-05-09T19:40:44.187Z,9.10
2024-05-09T19:43:11.422Z,8.93
2024-05-09T19:45:41.306Z,8.67
2024-05-09T19:48:08.871Z,8.60
2024-05-09T19:50:43.218Z,9.03
2024-05-09T19:53:15.221Z,9.90
2024-05-09T19:55:45.437Z,9.80
2024-05-09T19:58:13.185Z,10.07
2024-05-09T20:00:44.532Z,10.10
2024-05-09T20:03:13.657Z,9.80
2024-05-09T20:05:45.367Z,10.60
2024-05-09T20:08:15.786Z,10.20
2024-05-09T20:10:45.802Z,9.27
2024-05-09T20:13:13.876Z,9.70
2024-05-09T20:15:43.750Z,9.07
2024-05-09T20:18:11.339Z,8.87
2024-05-09T20:20:43.904Z,9.80
2024-05-09T20:23:15.379Z,10.57
2024-05-09T20:25:45.671Z,11.40
2024-05-09T20:28:13.000Z,12.40
2024-05-09T20:30:42.882Z,10.83
2024-05-09T20:33:10.720Z,10.47
2024-05-09T20:35:40.743Z,10.43
2024-05-09T20:38:08.058Z,10.30
2024-05-09T20:40:40.803Z,9.63
2024-05-09T20:43:08.688Z,9.73
2024-05-09T20:45:39.244Z,9.20
2024-05-09T20:48:08.565Z,9.03
2024-05-09T20:50:41.460Z,10.20
2024-05-09T20:53:10.988Z,9.40
2024-05-09T20:55:44.616Z,8.93
2024-05-09T20:58:12.433Z,9.00
2024-05-09T21:00:45.008Z,9.00
2024-05-09T21:03:15.418Z,9.53
2024-05-09T21:05:46.782Z,11.73
2024-05-09T21:08:14.380Z,12.53
2024-05-09T21:10:47.122Z,13.97
2024-05-09T21:13:17.141Z,10.70
2024-05-09T21:15:44.328Z,10.47
2024-05-09T21:18:14.051Z,9.37
2024-05-09T21:20:41.264Z,9.50
2024-05-09T21:23:11.286Z,8.73
2024-05-09T21:25:38.367Z,11.00
2024-05-09T21:28:10.986Z,10.50
2024-05-09T21:30:42.158Z,10.03
2024-05-09T21:33:14.789Z,10.10
2024-05-09T21:35:42.537Z,11.10
2024-05-09T21:38:13.913Z,10.17
2024-05-09T21:40:41.384Z,9.83
2024-05-09T21:43:14.433Z,9.83
2024-05-09T21:45:41.818Z,10.23
2024-05-09T21:48:11.845Z,11.23
2024-05-09T21:50:41.560Z,11.97
2024-05-09T21:53:13.649Z,14.73
2024-05-09T21:55:41.371Z,12.73
2024-05-09T21:58:15.117Z,11.83
2024-05-09T22:00:45.669Z,10.63
2024-05-09T22:03:16.849Z,9.60
2024-05-09T22:05:45.111Z,9.90
2024-05-09T22:08:15.332Z,10.77
2024-05-09T22:10:42.765Z,10.67
2024-05-09T22:13:16.830Z,10.43
2024-05-09T22:15:44.122Z,9.50
2024-05-09T22:18:14.182Z,10.40
2024-05-09T22:20:45.475Z,10.57
2024-05-09T22:23:16.604Z,10.97
2024-05-09T22:25:43.718Z,10.90
2024-05-09T22:28:17.440Z,10.40
2024-05-09T22:30:46.502Z,10.23
2024-05-09T22:33:17.740Z,10.53
2024-05-09T22:35:45.475Z,11.27
2024-05-09T22:38:15.196Z,11.77
2024-05-09T22:40:47.720Z,11.83
2024-05-09T22:43:24.640Z,12.33
2024-05-09T22:45:52.716Z,11.60
2024-05-09T22:48:23.807Z,12.20
2024-05-09T22:50:51.777Z,15.70
2024-05-09T22:53:21.470Z,12.87
2024-05-09T22:55:48.594Z,12.63
2024-05-09T22:58:18.526Z,11.83
2024-05-09T23:00:48.397Z,11.90
2024-05-09T23:03:21.541Z,12.27
2024-05-09T23:05:48.904Z,12.40
2024-05-09T23:08:18.672Z,11.90
2024-05-09T23:10:46.041Z,12.63
2024-05-09T23:13:16.248Z,12.37
2024-05-09T23:15:43.443Z,11.90
2024-05-09T23:18:15.936Z,11.87
2024-05-09T23:20:42.965Z,11.80
2024-05-09T23:23:13.033Z,12.07
2024-05-09T23:25:41.755Z,12.30
2024-05-09T23:28:11.956Z,12.20
2024-05-09T23:30:42.516Z,12.10
2024-05-09T23:33:14.103Z,12.83
2024-05-09T23:35:45.094Z,12.17
2024-05-09T23:38:12.335Z,13.03
2024-05-09T23:40:42.990Z,11.80
2024-05-09T23:43:11.749Z,12.73
2024-05-09T23:45:42.581Z,12.37
2024-05-09T23:48:12.866Z,11.47
2024-05-09T23:50:42.642Z,12.27
2024-05-09T23:53:10.765Z,12.70
2024-05-09T23:55:41.193Z,12.27
2024-05-09T23:58:08.533Z,12.03
